createdAt,value
2023-03-02T03:59:24.020Z,1019.49
2023-03-02T04:00:23.983Z,1019.50
2023-03-02T04:01:23.993Z,1019.57
2023-03-02T04:02:24.008Z,1019.52
2023-03-02T04:03:23.950Z,1019.59
2023-03-02T04:04:23.921Z,1019.57
2023-03-02T04:05:23.951Z,1019.57
2023-03-02T04:06:23.943Z,1019.58
2023-03-02T04:07:23.958Z,1019.61
2023-03-02T04:08:23.896Z,1019.62
2023-03-02T04:09:23.884Z,1019.61
2023-03-02T04:10:23.892Z,1019.65
2023-03-02T04:11:23.872Z,1019.63
2023-03-02T04:12:23.883Z,1019.68
2023-03-02T04:13:23.882Z,1019.66
2023-03-02T04:14:23.871Z,1019.70
2023-03-02T04:15:23.914Z,1019.66
2023-03-02T04:16:23.884Z,1019.70
2023-03-02T04:17:23.859Z,1019.69
2023-03-02T04:18:23.841Z,1019.67
2023-03-02T04:19:23.845Z,1019.66
2023-03-02T04:20:23.844Z,1019.68
2023-03-02T04:21:23.836Z,1019.63
2023-03-02T04:22:23.831Z,1019.60
2023-03-02T04:23:23.847Z,1019.59
2023-03-02T04:24:23.836Z,1019.58
2023-03-02T04:25:23.818Z,1019.57
2023-03-02T04:26:23.848Z,1019.57
2023-03-02T04:27:23.796Z,1019.57
2023-03-02T04:28:23.800Z,1019.57
2023-03-02T04:29:23.793Z,1019.55
2023-03-02T04:30:23.798Z,1019.52
2023-03-02T04:31:23.848Z,1019.55
2023-03-02T04:32:23.821Z,1019.59
2023-03-02T04:33:23.795Z,1019.52
2023-03-02T04:34:23.786Z,1019.47
2023-03-02T04:35:23.793Z,1019.47
2023-03-02T04:36:23.771Z,1019.54
2023-03-02T04:37:23.772Z,1019.49
2023-03-02T04:38:23.773Z,1019.55
2023-03-02T04:39:23.791Z,1019.54
2023-03-02T04:40:23.754Z,1019.58
2023-03-02T04:41:23.755Z,1019.54
2023-03-02T04:42:23.746Z,1019.53
2023-03-02T04:43:23.781Z,1019.54
2023-03-02T04:44:23.751Z,1019.58
2023-03-02T04:45:23.742Z,1019.58
2023-03-02T04:46:23.810Z,1019.57
2023-03-02T04:47:23.781Z,1019.57
2023-03-02T04:48:23.717Z,1019.59
2023-03-02T04:49:23.730Z,1019.57
2023-03-02T04:50:23.714Z,1019.61
2023-03-02T04:51:23.701Z,1019.58
2023-03-02T04:52:23.735Z,1019.59
2023-03-02T04:53:23.711Z,1019.56
2023-03-02T04:54:23.721Z,1019.52
2023-03-02T04:55:23.696Z,1019.51
2023-03-02T04:56:23.698Z,1019.53
2023-03-02T04:57:23.695Z,1019.53
2023-03-02T04:58:23.682Z,1019.52
2023-03-02T04:59:23.700Z,1019.55
2023-03-02T05:00:23.684Z,1019.49
2023-03-02T05:01:23.686Z,1019.51
2023-03-02T05:02:23.734Z,1019.53
2023-03-02T05:03:23.779Z,1019.52
2023-03-02T05:04:23.762Z,1019.50
2023-03-02T05:05:23.666Z,1019.49
2023-03-02T05:06:23.649Z,1019.49
2023-03-02T05:07:23.635Z,1019.44
2023-03-02T05:08:23.630Z,1019.46
2023-03-02T05:09:23.645Z,1019.44
2023-03-02T05:10:23.662Z,1019.47
2023-03-02T05:11:23.631Z,1019.44
2023-03-02T05:12:23.630Z,1019.45
2023-03-02T05:13:23.648Z,1019.42
2023-03-02T05:14:23.605Z,1019.43
2023-03-02T05:15:23.606Z,1019.46
2023-03-02T05:16:23.668Z,1019.46
2023-03-02T05:17:23.597Z,1019.48
2023-03-02T05:18:23.610Z,1019.45
2023-03-02T05:19:23.603Z,1019.44
2023-03-02T05:20:23.605Z,1019.45
2023-03-02T05:21:23.597Z,1019.42
2023-03-02T05:22:23.568Z,1019.38
2023-03-02T05:23:25.327Z,1019.44
2023-03-02T05:24:23.563Z,1019.42
2023-03-02T05:25:23.569Z,1019.44
2023-03-02T05:26:23.584Z,1019.46
2023-03-02T05:27:23.589Z,1019.52
2023-03-02T05:28:23.579Z,1019.51
2023-03-02T05:29:23.543Z,1019.50
2023-03-02T05:30:23.548Z,1019.50
2023-03-02T05:31:23.704Z,1019.47
2023-03-02T05:32:23.582Z,1019.45
2023-03-02T05:33:23.602Z,1019.44
2023-03-02T05:34:23.529Z,1019.44
2023-03-02T05:35:23.614Z,1019.48
2023-03-02T05:36:23.511Z,1019.47
2023-03-02T05:37:23.511Z,1019.50
2023-03-02T05:38:23.558Z,1019.49
2023-03-02T05:39:23.509Z,1019.49
2023-03-02T05:40:23.538Z,1019.51
2023-03-02T05:41:23.520Z,1019.57
2023-03-02T05:42:23.494Z,1019.55
2023-03-02T05:43:23.532Z,1019.56
2023-03-02T05:44:23.488Z,1019.53
2023-03-02T05:45:23.495Z,1019.53
2023-03-02T05:46:23.499Z,1019.56
2023-03-02T05:47:23.514Z,1019.55
2023-03-02T05:48:23.492Z,1019.57
2023-03-02T05:49:23.460Z,1019.58
2023-03-02T05:50:23.504Z,1019.57
2023-03-02T05:51:23.489Z,1019.61
2023-03-02T05:52:23.443Z,1019.58
2023-03-02T05:53:23.467Z,1019.59
2023-03-02T05:54:23.452Z,1019.63
2023-03-02T05:55:23.439Z,1019.60
2023-03-02T05:56:23.464Z,1019.59
2023-03-02T05:57:23.442Z,1019.61
2023-03-02T05:58:23.420Z,1019.61
2023-03-02T05:59:23.429Z,1019.57
2023-03-02T06:00:23.418Z,1019.62
2023-03-02T06:01:23.417Z,1019.60
2023-03-02T06:02:23.487Z,1019.60
2023-03-02T06:03:23.415Z,1019.59
2023-03-02T06:04:23.413Z,1019.62
2023-03-02T06:05:23.392Z,1019.63
2023-03-02T06:06:23.395Z,1019.60
2023-03-02T06:07:23.395Z,1019.61
2023-03-02T06:08:23.391Z,1019.60
2023-03-02T06:09:23.396Z,1019.59
2023-03-02T06:10:23.405Z,1019.63
2023-03-02T06:11:23.378Z,1019.62
2023-03-02T06:12:23.361Z,1019.62
2023-03-02T06:13:23.376Z,1019.65
2023-03-02T06:14:23.377Z,1019.66
2023-03-02T06:15:23.379Z,1019.68
2023-03-02T06:17:23.348Z,1019.68
2023-03-02T06:18:23.350Z,1019.68
2023-03-02T06:19:23.367Z,1019.69
2023-03-02T06:20:23.340Z,1019.65
2023-03-02T06:21:23.348Z,1019.68
2023-03-02T06:22:23.327Z,1019.66
2023-03-02T06:23:23.340Z,1019.69
2023-03-02T06:24:23.334Z,1019.65
2023-03-02T06:25:23.366Z,1019.65
2023-03-02T06:26:23.348Z,1019.64
2023-03-02T06:27:23.304Z,1019.68
2023-03-02T06:28:23.320Z,1019.66
2023-03-02T06:29:23.298Z,1019.70
2023-03-02T06:30:23.349Z,1019.73
2023-03-02T06:31:23.362Z,1019.71
2023-03-02T06:32:23.478Z,1019.74
2023-03-02T06:33:23.323Z,1019.73
2023-03-02T06:34:23.313Z,1019.74
2023-03-02T06:35:23.419Z,1019.76
2023-03-02T06:36:23.329Z,1019.75
2023-03-02T06:37:23.263Z,1019.80
2023-03-02T06:38:23.275Z,1019.79
2023-03-02T06:39:23.297Z,1019.78
2023-03-02T06:40:23.275Z,1019.79
2023-03-02T06:41:23.265Z,1019.79
2023-03-02T06:42:23.252Z,1019.80
2023-03-02T06:43:23.444Z,1019.86
2023-03-02T06:44:23.241Z,1019.83
2023-03-02T06:45:23.233Z,1019.82
2023-03-02T06:46:23.289Z,1019.83
2023-03-02T06:49:56.385Z,1019.86
2023-03-02T06:50:56.355Z,1019.85
2023-03-02T06:51:56.321Z,1019.81
2023-03-02T06:52:56.319Z,1019.83
2023-03-02T06:53:56.305Z,1019.83
2023-03-02T06:54:56.312Z,1019.81
2023-03-02T06:55:56.488Z,1019.85
2023-03-02T06:56:56.285Z,1019.84
2023-03-02T06:57:56.329Z,1019.83
2023-03-02T06:58:56.300Z,1019.80
2023-03-02T06:59:56.373Z,1019.83
2023-03-02T07:00:56.299Z,1019.81
2023-03-02T07:01:56.305Z,1019.81
2023-03-02T07:02:56.435Z,1019.84
2023-03-02T07:03:56.930Z,1019.84
2023-03-02T07:04:56.316Z,1019.79
2023-03-02T07:05:56.305Z,1019.82
2023-03-02T07:06:56.281Z,1019.83
2023-03-02T07:07:56.367Z,1019.83
2023-03-02T07:08:56.231Z,1019.83
2023-03-02T07:09:56.295Z,1019.86
2023-03-02T07:10:56.363Z,1019.86
2023-03-02T07:11:56.239Z,1019.89
2023-03-02T07:12:56.221Z,1019.89
2023-03-02T07:13:56.334Z,1019.90
2023-03-02T07:14:56.224Z,1019.85
2023-03-02T07:15:56.231Z,1019.80
2023-03-02T07:16:56.245Z,1019.81
2023-03-02T07:17:56.203Z,1019.81
2023-03-02T07:18:56.189Z,1019.80
2023-03-02T07:19:56.206Z,1019.76
2023-03-02T07:20:56.205Z,1019.75
2023-03-02T07:21:56.378Z,1019.80
2023-03-02T07:22:56.183Z,1019.74
2023-03-02T07:23:56.177Z,1019.72
2023-03-02T07:24:56.171Z,1019.74
2023-03-02T07:25:56.233Z,1019.70
2023-03-02T07:26:56.320Z,1019.68
2023-03-02T07:27:56.159Z,1019.69
2023-03-02T07:28:56.156Z,1019.67
2023-03-02T07:29:56.171Z,1019.69
2023-03-02T07:30:56.223Z,1019.62
2023-03-02T07:31:56.225Z,1019.67
2023-03-02T07:32:56.299Z,1019.65
2023-03-02T07:33:56.152Z,1019.67
2023-03-02T07:34:56.138Z,1019.62
2023-03-02T07:35:56.240Z,1019.62
2023-03-02T07:36:56.202Z,1019.66
2023-03-02T07:37:56.150Z,1019.60
2023-03-02T07:38:56.136Z,1019.64
2023-03-02T07:39:56.134Z,1019.61
2023-03-02T07:40:56.109Z,1019.60
2023-03-02T07:41:56.097Z,1019.59
2023-03-02T07:42:56.111Z,1019.63
2023-03-02T07:43:56.115Z,1019.59
2023-03-02T07:44:56.142Z,1019.56
2023-03-02T07:45:58.036Z,1019.58
2023-03-02T07:46:56.155Z,1019.57
2023-03-02T07:47:56.277Z,1019.56
2023-03-02T07:48:56.101Z,1019.56
2023-03-02T07:49:56.088Z,1019.54
2023-03-02T07:50:56.090Z,1019.59
2023-03-02T07:51:56.083Z,1019.60
2023-03-02T07:52:57.601Z,1019.65
2023-03-02T07:53:56.072Z,1019.64
2023-03-02T07:54:56.085Z,1019.64
2023-03-02T07:55:56.043Z,1019.68
2023-03-02T07:57:56.055Z,1019.69
2023-03-02T07:58:56.235Z,1019.68
2023-03-02T07:59:56.063Z,1019.66
2023-03-02T08:00:56.035Z,1019.67
2023-03-02T08:01:56.140Z,1019.61
2023-03-02T08:02:56.226Z,1019.65
2023-03-02T08:03:56.088Z,1019.61
2023-03-02T08:04:56.064Z,1019.66
2023-03-02T08:05:56.052Z,1019.61
2023-03-02T08:06:56.007Z,1019.67
2023-03-02T08:07:55.993Z,1019.67
2023-03-02T08:08:56.027Z,1019.66
2023-03-02T08:09:55.997Z,1019.66
2023-03-02T08:11:55.980Z,1019.66
2023-03-02T08:12:55.990Z,1019.63
2023-03-02T08:13:56.013Z,1019.63
2023-03-02T08:14:56.010Z,1019.61
2023-03-02T08:16:55.968Z,1019.61
2023-03-02T08:17:55.971Z,1019.58
2023-03-02T08:18:58.630Z,1019.63
2023-03-02T08:19:55.939Z,1019.63
2023-03-02T08:20:55.980Z,1019.60
2023-03-02T08:21:55.963Z,1019.61
2023-03-02T08:22:55.953Z,1019.60
2023-03-02T08:23:56.020Z,1019.64
2023-03-02T08:24:56.047Z,1019.63
2023-03-02T08:25:55.941Z,1019.64
2023-03-02T08:26:56.044Z,1019.63
2023-03-02T08:27:55.995Z,1019.61
2023-03-02T08:28:56.020Z,1019.60
2023-03-02T08:29:56.974Z,1019.62
2023-03-02T08:30:55.991Z,1019.60
2023-03-02T08:31:56.217Z,1019.53
2023-03-02T08:32:56.238Z,1019.58
2023-03-02T08:33:55.956Z,1019.57
2023-03-02T08:34:56.101Z,1019.57
2023-03-02T08:35:55.980Z,1019.53
2023-03-02T08:36:56.026Z,1019.53
2023-03-02T08:37:56.006Z,1019.56
2023-03-02T08:38:56.041Z,1019.54
2023-03-02T08:39:57.918Z,1019.54
2023-03-02T08:40:55.989Z,1019.55
2023-03-02T08:44:28.931Z,1019.53
2023-03-02T08:45:29.000Z,1019.51
2023-03-02T08:46:29.123Z,1019.53
2023-03-02T08:47:29.289Z,1019.55
2023-03-02T08:48:28.914Z,1019.52
2023-03-02T08:49:28.919Z,1019.56
2023-03-02T08:50:28.964Z,1019.59
2023-03-02T08:51:28.884Z,1019.57
2023-03-02T08:52:28.921Z,1019.56
2023-03-02T08:53:28.886Z,1019.58
2023-03-02T08:54:28.876Z,1019.58
2023-03-02T08:55:28.954Z,1019.58
2023-03-02T08:56:28.882Z,1019.56
2023-03-02T08:57:28.892Z,1019.57
2023-03-02T08:58:28.905Z,1019.59
2023-03-02T08:59:28.855Z,1019.59
2023-03-02T09:00:30.646Z,1019.59
2023-03-02T09:01:28.930Z,1019.55
2023-03-02T09:02:28.865Z,1019.56
2023-03-02T09:03:28.822Z,1019.54
2023-03-02T09:04:28.906Z,1019.57
2023-03-02T09:05:28.898Z,1019.56
2023-03-02T09:06:28.827Z,1019.55
2023-03-02T09:07:28.846Z,1019.53
2023-03-02T09:08:28.803Z,1019.56
2023-03-02T09:09:28.825Z,1019.55
2023-03-02T09:10:28.825Z,1019.59
2023-03-02T09:11:28.848Z,1019.58
2023-03-02T09:12:28.797Z,1019.57
2023-03-02T09:13:28.779Z,1019.58
2023-03-02T09:14:28.818Z,1019.58
2023-03-02T09:15:28.801Z,1019.62
2023-03-02T09:16:28.875Z,1019.61
2023-03-02T09:17:28.805Z,1019.59
2023-03-02T09:18:28.922Z,1019.60
2023-03-02T09:19:28.795Z,1019.58
2023-03-02T09:20:28.905Z,1019.60
2023-03-02T09:21:28.792Z,1019.61
2023-03-02T09:22:28.907Z,1019.55
2023-03-02T09:23:28.751Z,1019.57
2023-03-02T09:24:29.751Z,1019.56
2023-03-02T09:25:28.833Z,1019.59
2023-03-02T09:26:28.779Z,1019.60
2023-03-02T09:27:28.795Z,1019.56
2023-03-02T09:28:28.741Z,1019.58
2023-03-02T09:29:28.746Z,1019.61
2023-03-02T09:30:28.763Z,1019.60
2023-03-02T09:31:30.371Z,1019.61
2023-03-02T09:32:28.893Z,1019.60
2023-03-02T09:33:28.738Z,1019.63
2023-03-02T09:34:28.749Z,1019.62
2023-03-02T09:35:28.739Z,1019.62
2023-03-02T09:36:28.720Z,1019.63
2023-03-02T09:37:30.575Z,1019.63
2023-03-02T09:38:28.735Z,1019.63
2023-03-02T09:39:28.737Z,1019.68
2023-03-02T09:40:28.839Z,1019.64
2023-03-02T09:41:28.715Z,1019.67
2023-03-02T09:42:41.778Z,1019.69
2023-03-02T09:43:28.696Z,1019.67
2023-03-02T09:44:28.679Z,1019.67
2023-03-02T09:45:28.715Z,1019.65
2023-03-02T09:46:28.686Z,1019.70
2023-03-02T09:47:35.525Z,1019.69
2023-03-02T09:48:28.915Z,1019.72
2023-03-02T09:49:28.683Z,1019.73
2023-03-02T09:50:28.689Z,1019.70
2023-03-02T09:51:28.653Z,1019.74
2023-03-02T09:52:28.696Z,1019.75
2023-03-02T09:53:28.663Z,1019.73
2023-03-02T09:54:28.736Z,1019.75
2023-03-02T09:55:28.710Z,1019.77
2023-03-02T09:56:28.650Z,1019.80
2023-03-02T09:57:28.639Z,1019.79
2023-03-02T09:58:28.663Z,1019.77
2023-03-02T10:00:28.653Z,1019.81
2023-03-02T10:01:28.670Z,1019.79
2023-03-02T10:02:28.618Z,1019.82
2023-03-02T10:13:45.984Z,1019.82
2023-03-02T10:14:43.733Z,1019.85
2023-03-02T10:15:43.902Z,1019.89
2023-03-02T10:16:43.751Z,1019.82
2023-03-02T10:17:43.727Z,1019.81
2023-03-02T10:18:43.766Z,1019.80
2023-03-02T10:19:43.752Z,1019.80
2023-03-02T10:20:43.697Z,1019.80
2023-03-02T10:21:43.688Z,1019.79
2023-03-02T10:22:43.745Z,1019.76
2023-03-02T10:23:43.715Z,1019.77
2023-03-02T10:24:43.689Z,1019.78
2023-03-02T10:25:43.734Z,1019.79
2023-03-02T10:26:43.904Z,1019.80
2023-03-02T10:27:44.411Z,1019.79
2023-03-02T10:28:43.750Z,1019.78
2023-03-02T10:29:43.708Z,1019.73
2023-03-02T10:30:44.350Z,1019.78
2023-03-02T10:31:44.484Z,1019.75
2023-03-02T10:32:43.684Z,1019.74
2023-03-02T10:33:43.656Z,1019.69
2023-03-02T10:34:43.737Z,1019.62
2023-03-02T10:35:43.710Z,1019.64
2023-03-02T10:36:43.801Z,1019.63
2023-03-02T10:37:43.722Z,1019.65
2023-03-02T10:38:43.657Z,1019.63
2023-03-02T10:39:43.681Z,1019.61
2023-03-02T10:40:43.652Z,1019.62
2023-03-02T10:41:43.649Z,1019.66
2023-03-02T10:42:43.811Z,1019.63
2023-03-02T10:43:43.626Z,1019.64
2023-03-02T10:44:43.648Z,1019.64
2023-03-02T10:45:43.658Z,1019.67
2023-03-02T10:46:43.815Z,1019.63
2023-03-02T10:47:43.721Z,1019.66
2023-03-02T10:48:49.250Z,1019.60
2023-03-02T10:49:43.703Z,1019.64
2023-03-02T10:50:43.691Z,1019.65
2023-03-02T10:51:43.582Z,1019.64
2023-03-02T10:52:54.413Z,1019.62
2023-03-02T10:53:43.586Z,1019.64
2023-03-02T10:54:43.635Z,1019.60
2023-03-02T10:55:43.578Z,1019.59
2023-03-02T10:56:43.593Z,1019.57
2023-03-02T10:57:43.591Z,1019.59
2023-03-02T10:58:43.577Z,1019.62
2023-03-02T10:59:43.630Z,1019.65
2023-03-02T11:00:43.568Z,1019.62
2023-03-02T11:01:43.680Z,1019.62
2023-03-02T11:02:43.554Z,1019.58
2023-03-02T11:03:43.552Z,1019.61
2023-03-02T11:04:43.707Z,1019.56
2023-03-02T11:05:43.568Z,1019.57
2023-03-02T11:06:43.561Z,1019.55
2023-03-02T11:07:43.532Z,1019.55
2023-03-02T11:08:43.576Z,1019.55
2023-03-02T11:09:43.533Z,1019.58
2023-03-02T11:10:43.538Z,1019.54
2023-03-02T11:11:43.630Z,1019.55
2023-03-02T11:12:43.523Z,1019.56
2023-03-02T11:13:43.553Z,1019.54
2023-03-02T11:14:43.561Z,1019.54
2023-03-02T11:15:43.554Z,1019.53
2023-03-02T11:16:43.522Z,1019.48
2023-03-02T11:17:43.623Z,1019.55
2023-03-02T11:18:43.505Z,1019.54
2023-03-02T11:19:43.514Z,1019.49
2023-03-02T11:20:43.563Z,1019.49
2023-03-02T11:21:43.514Z,1019.49
2023-03-02T11:22:43.510Z,1019.54
2023-03-02T11:23:43.513Z,1019.54
2023-03-02T11:24:43.578Z,1019.50
2023-03-02T11:25:43.535Z,1019.50
2023-03-02T11:26:43.486Z,1019.56
2023-03-02T11:27:43.485Z,1019.54
2023-03-02T11:28:43.493Z,1019.50
2023-03-02T11:29:43.530Z,1019.49
2023-03-02T11:30:43.590Z,1019.51
2023-03-02T11:31:43.725Z,1019.53
2023-03-02T11:32:43.612Z,1019.54
2023-03-02T11:33:43.599Z,1019.54
2023-03-02T11:34:43.480Z,1019.58
2023-03-02T11:35:43.515Z,1019.56
2023-03-02T11:36:43.454Z,1019.55
2023-03-02T11:37:43.463Z,1019.54
2023-03-02T11:38:43.478Z,1019.53
2023-03-02T11:39:49.995Z,1019.53
2023-03-02T11:40:45.049Z,1019.54
2023-03-02T11:41:43.453Z,1019.54
2023-03-02T11:42:43.439Z,1019.56
2023-03-02T11:43:43.493Z,1019.50
2023-03-02T11:44:43.454Z,1019.55
2023-03-02T11:45:43.439Z,1019.49
2023-03-02T11:46:43.496Z,1019.56
2023-03-02T11:47:45.614Z,1019.57
2023-03-02T11:48:43.425Z,1019.50
2023-03-02T11:49:43.485Z,1019.55
2023-03-02T11:50:43.462Z,1019.55
2023-03-02T11:51:47.400Z,1019.46
2023-03-02T11:52:43.432Z,1019.51
2023-03-02T11:53:43.447Z,1019.49
2023-03-02T11:54:43.417Z,1019.49
2023-03-02T11:55:43.429Z,1019.48
2023-03-02T11:56:43.407Z,1019.44
2023-03-02T11:57:43.400Z,1019.42
2023-03-02T11:58:43.397Z,1019.40
2023-03-02T11:59:43.427Z,1019.37
2023-03-02T12:00:43.410Z,1019.37
2023-03-02T12:01:43.465Z,1019.34
2023-03-02T12:02:43.412Z,1019.32
2023-03-02T12:03:43.382Z,1019.30
2023-03-02T12:04:43.407Z,1019.31
2023-03-02T12:05:43.505Z,1019.32
2023-03-02T12:06:43.368Z,1019.28
2023-03-02T12:07:43.403Z,1019.26
2023-03-02T12:08:43.436Z,1019.25
2023-03-02T12:09:43.365Z,1019.24
2023-03-02T12:10:43.397Z,1019.24
2023-03-02T12:11:43.377Z,1019.20
2023-03-02T12:12:43.407Z,1019.19
2023-03-02T12:13:43.433Z,1019.16
2023-03-02T12:14:43.409Z,1019.12
2023-03-02T12:15:43.442Z,1019.13
2023-03-02T12:16:43.562Z,1019.12
2023-03-02T12:17:43.408Z,1019.08
2023-03-02T12:18:43.386Z,1019.05
2023-03-02T12:19:43.343Z,1019.04
2023-03-02T12:20:43.351Z,1019.00
2023-03-02T12:21:43.386Z,1018.93
2023-03-02T12:22:43.540Z,1018.96
2023-03-02T12:23:43.375Z,1018.94
2023-03-02T12:24:43.332Z,1018.93
2023-03-02T12:25:43.401Z,1018.92
2023-03-02T12:26:43.357Z,1018.93
2023-03-02T12:27:43.369Z,1018.91
2023-03-02T12:28:43.341Z,1018.91
2023-03-02T12:29:43.334Z,1018.90
2023-03-02T12:30:43.319Z,1018.88
2023-03-02T12:31:43.513Z,1018.87
2023-03-02T12:32:43.423Z,1018.91
2023-03-02T12:35:16.560Z,1018.84
2023-03-02T12:42:23.024Z,1018.86
2023-03-02T12:44:23.692Z,1018.82
2023-03-02T12:45:23.033Z,1018.78
2023-03-02T12:46:25.049Z,1018.77
2023-03-02T12:47:23.909Z,1018.74
2023-03-02T12:48:23.165Z,1018.73
2023-03-02T12:49:23.030Z,1018.71
2023-03-02T12:50:23.036Z,1018.70
2023-03-02T12:51:23.243Z,1018.66
2023-03-02T12:52:24.048Z,1018.66
2023-03-02T12:53:22.998Z,1018.67
2023-03-02T12:54:23.067Z,1018.64
2023-03-02T12:55:23.106Z,1018.63
2023-03-02T12:56:23.217Z,1018.62
2023-03-02T12:57:23.010Z,1018.58
2023-03-02T12:58:22.988Z,1018.61
2023-03-02T12:59:23.023Z,1018.57
2023-03-02T13:00:23.051Z,1018.52
2023-03-02T13:01:23.052Z,1018.55
2023-03-02T13:02:23.166Z,1018.49
2023-03-02T13:03:23.052Z,1018.48
2023-03-02T13:04:23.201Z,1018.46
2023-03-02T13:05:23.105Z,1018.45
2023-03-02T13:06:22.964Z,1018.47
2023-03-02T13:07:23.005Z,1018.44
2023-03-02T13:08:23.117Z,1018.47
2023-03-02T13:09:22.971Z,1018.48
2023-03-02T13:10:23.110Z,1018.49
2023-03-02T13:11:23.040Z,1018.50
2023-03-02T13:12:22.971Z,1018.44
2023-03-02T13:13:23.451Z,1018.47
2023-03-02T13:14:23.597Z,1018.47
2023-03-02T13:15:22.959Z,1018.47
2023-03-02T13:16:23.033Z,1018.44
2023-03-02T13:17:23.017Z,1018.46
2023-03-02T13:18:22.959Z,1018.42
2023-03-02T13:19:22.959Z,1018.38
2023-03-02T13:20:22.997Z,1018.32
2023-03-02T13:21:22.958Z,1018.31
2023-03-02T13:22:23.039Z,1018.32
2023-03-02T13:23:22.950Z,1018.26
2023-03-02T13:24:22.955Z,1018.25
2023-03-02T13:25:22.984Z,1018.24
2023-03-02T13:26:22.980Z,1018.23
2023-03-02T13:27:23.037Z,1018.24
2023-03-02T13:28:22.993Z,1018.26
2023-03-02T13:29:23.003Z,1018.28
2023-03-02T13:30:23.027Z,1018.25
2023-03-02T13:31:23.115Z,1018.21
2023-03-02T13:32:23.118Z,1018.22
2023-03-02T13:33:23.058Z,1018.21
2023-03-02T13:34:22.958Z,1018.22
2023-03-02T13:35:24.393Z,1018.24
2023-03-02T13:36:23.052Z,1018.21
2023-03-02T13:37:23.031Z,1018.23
2023-03-02T13:38:22.972Z,1018.20
2023-03-02T13:39:23.001Z,1018.20
2023-03-02T13:40:23.019Z,1018.16
2023-03-02T13:41:23.045Z,1018.11
2023-03-02T13:42:23.009Z,1018.16
2023-03-02T13:43:22.997Z,1018.11
2023-03-02T13:44:23.017Z,1018.10
2023-03-02T13:45:22.979Z,1018.10
2023-03-02T13:46:23.185Z,1018.16
2023-03-02T13:47:23.036Z,1018.13
2023-03-02T13:48:23.001Z,1018.11
2023-03-02T13:49:22.965Z,1018.16
2023-03-02T13:50:23.099Z,1018.13
2023-03-02T13:51:23.023Z,1018.14
2023-03-02T13:52:22.965Z,1018.15
2023-03-02T13:53:22.998Z,1018.17
2023-03-02T13:54:22.984Z,1018.12
2023-03-02T13:55:23.120Z,1018.12
2023-03-02T13:56:22.958Z,1018.14
2023-03-02T13:57:22.993Z,1018.12
2023-03-02T13:58:23.036Z,1018.15
2023-03-02T13:59:22.993Z,1018.15
2023-03-02T14:00:23.073Z,1018.10
2023-03-02T14:01:23.107Z,1018.10
2023-03-02T14:02:22.987Z,1018.10
2023-03-02T14:03:23.016Z,1018.09
2023-03-02T14:04:23.246Z,1018.06
2023-03-02T14:05:23.189Z,1018.11
2023-03-02T14:06:23.009Z,1018.09
2023-03-02T14:07:22.989Z,1018.07
2023-03-02T14:08:22.991Z,1018.10
2023-03-02T14:09:22.972Z,1018.08
2023-03-02T14:10:22.967Z,1018.07
2023-03-02T14:11:22.964Z,1018.09
2023-03-02T14:12:22.979Z,1018.09
2023-03-02T14:13:22.985Z,1018.04
2023-03-02T14:14:22.999Z,1018.01
2023-03-02T14:15:23.103Z,1017.99
2023-03-02T14:16:23.082Z,1018.01
2023-03-02T14:17:22.986Z,1017.99
2023-03-02T14:18:22.978Z,1018.00
2023-03-02T14:19:23.010Z,1017.98
2023-03-02T14:20:22.971Z,1017.94
2023-03-02T14:21:23.026Z,1017.94
2023-03-02T14:22:22.977Z,1017.90
2023-03-02T14:23:23.019Z,1017.92
2023-03-02T14:25:22.957Z,1017.87
2023-03-02T14:26:23.077Z,1017.87
2023-03-02T14:27:22.970Z,1017.84
2023-03-02T14:28:22.958Z,1017.85
2023-03-02T14:29:22.983Z,1017.81
2023-03-02T14:30:22.959Z,1017.82
2023-03-02T14:31:23.070Z,1017.80
2023-03-02T14:32:23.138Z,1017.83
2023-03-02T14:33:22.945Z,1017.82
2023-03-02T14:34:22.960Z,1017.82
2023-03-02T14:35:23.032Z,1017.79
2023-03-02T14:36:22.986Z,1017.81
2023-03-02T14:37:22.968Z,1017.76
2023-03-02T14:38:22.941Z,1017.85
2023-03-02T14:39:22.995Z,1017.78
2023-03-02T14:40:22.949Z,1017.80
2023-03-02T14:41:22.948Z,1017.80
2023-03-02T14:42:23.011Z,1017.79
2023-03-02T14:43:22.927Z,1017.79
2023-03-02T14:44:23.247Z,1017.79
2023-03-02T14:45:22.970Z,1017.74
2023-03-02T14:46:23.172Z,1017.74
2023-03-02T14:47:22.968Z,1017.72
2023-03-02T14:48:23.010Z,1017.72
2023-03-02T14:49:22.925Z,1017.70
2023-03-02T14:50:22.916Z,1017.67
2023-03-02T14:51:22.945Z,1017.68
2023-03-02T14:52:22.924Z,1017.68
2023-03-02T14:53:22.956Z,1017.70
2023-03-02T14:54:22.889Z,1017.66
2023-03-02T14:55:22.894Z,1017.64
2023-03-02T14:56:22.916Z,1017.65
2023-03-02T14:57:22.907Z,1017.64
2023-03-02T14:58:22.952Z,1017.64
2023-03-02T14:59:22.883Z,1017.65
2023-03-02T15:00:22.883Z,1017.63
2023-03-02T15:01:22.907Z,1017.64
2023-03-02T15:02:26.082Z,1017.63
2023-03-02T15:03:23.030Z,1017.63
2023-03-02T15:04:22.900Z,1017.62
2023-03-02T15:05:22.872Z,1017.63
2023-03-02T15:06:22.860Z,1017.60
2023-03-02T15:07:22.869Z,1017.62
2023-03-02T15:08:22.887Z,1017.59
2023-03-02T15:09:22.853Z,1017.57
2023-03-02T15:10:22.848Z,1017.59
2023-03-02T15:11:22.858Z,1017.62
2023-03-02T15:12:22.844Z,1017.61
2023-03-02T15:13:22.879Z,1017.62
2023-03-02T15:14:22.857Z,1017.64
2023-03-02T15:15:22.834Z,1017.62
2023-03-02T15:16:22.862Z,1017.61
2023-03-02T15:17:22.828Z,1017.63
2023-03-02T15:18:22.846Z,1017.65
2023-03-02T15:19:22.848Z,1017.62
2023-03-02T15:20:22.817Z,1017.62
2023-03-02T15:21:22.834Z,1017.65
2023-03-02T15:22:22.836Z,1017.64
2023-03-02T15:23:22.815Z,1017.69
2023-03-02T15:24:22.832Z,1017.66
2023-03-02T15:25:22.827Z,1017.61
2023-03-02T15:26:22.805Z,1017.63
2023-03-02T15:27:22.841Z,1017.66
2023-03-02T15:28:22.801Z,1017.69
2023-03-02T15:29:22.818Z,1017.69
2023-03-02T15:30:22.795Z,1017.71
2023-03-02T15:31:22.894Z,1017.69
2023-03-02T15:32:22.903Z,1017.65
2023-03-02T15:33:22.780Z,1017.61
2023-03-02T15:34:22.814Z,1017.66
2023-03-02T15:35:22.822Z,1017.66
2023-03-02T15:36:22.789Z,1017.64
2023-03-02T15:37:22.785Z,1017.63
2023-03-02T15:38:22.779Z,1017.64
2023-03-02T15:39:22.768Z,1017.63
2023-03-02T15:40:22.764Z,1017.63
2023-03-02T15:41:22.793Z,1017.60
2023-03-02T15:42:22.768Z,1017.57
2023-03-02T15:43:22.786Z,1017.55
2023-03-02T15:44:22.891Z,1017.56
2023-03-02T15:45:22.753Z,1017.57
2023-03-02T15:46:22.832Z,1017.55
2023-03-02T15:47:22.746Z,1017.55
2023-03-02T15:48:22.748Z,1017.55
2023-03-02T15:49:22.947Z,1017.54
2023-03-02T15:50:22.763Z,1017.54
2023-03-02T15:51:22.750Z,1017.50
2023-03-02T15:52:22.720Z,1017.46
2023-03-02T15:53:22.720Z,1017.50
2023-03-02T15:54:22.714Z,1017.51
2023-03-02T15:55:22.718Z,1017.53
2023-03-02T15:56:23.859Z,1017.54
2023-03-02T15:57:22.723Z,1017.51
2023-03-02T15:58:22.697Z,1017.52
2023-03-02T15:59:22.714Z,1017.49
2023-03-02T16:00:22.703Z,1017.51
2023-03-02T16:01:22.795Z,1017.49
2023-03-02T16:12:54.174Z,1017.48
2023-03-02T16:13:54.120Z,1017.57
2023-03-02T16:14:54.134Z,1017.55
2023-03-02T16:15:54.118Z,1017.56
2023-03-02T16:16:54.172Z,1017.58
2023-03-02T16:17:54.109Z,1017.60
2023-03-02T16:18:54.103Z,1017.63
2023-03-02T16:19:54.108Z,1017.65
2023-03-02T16:20:54.080Z,1017.65
2023-03-02T16:21:54.077Z,1017.61
2023-03-02T16:22:54.082Z,1017.65
2023-03-02T16:23:54.082Z,1017.64
2023-03-02T16:24:54.080Z,1017.62
2023-03-02T16:25:54.068Z,1017.62
2023-03-02T16:26:54.063Z,1017.64
2023-03-02T16:27:54.085Z,1017.67
2023-03-02T16:28:54.073Z,1017.69
2023-03-02T16:29:54.147Z,1017.71
2023-03-02T16:30:54.032Z,1017.70
2023-03-02T16:31:54.158Z,1017.67
2023-03-02T16:32:54.040Z,1017.71
2023-03-02T16:33:54.045Z,1017.68
2023-03-02T16:34:54.042Z,1017.75
2023-03-02T16:35:54.023Z,1017.73
2023-03-02T16:36:54.025Z,1017.71
2023-03-02T16:37:54.024Z,1017.76
2023-03-02T16:38:54.024Z,1017.75
2023-03-02T16:39:54.017Z,1017.83
2023-03-02T16:40:56.811Z,1017.78
2023-03-02T16:41:53.996Z,1017.80
2023-03-02T16:42:54.013Z,1017.82
2023-03-02T16:43:54.063Z,1017.84
2023-03-02T16:44:54.031Z,1017.84